createdAt,value
2019-05-09T00:00:07.169Z,99040.39
2019-05-09T00:02:43.605Z,99033.44
2019-05-09T00:05:17.275Z,99032.64
2019-05-09T00:07:53.197Z,99028.34
2019-05-09T00:10:38.489Z,99034.11
2019-05-09T00:13:03.513Z,99029.72
2019-05-09T00:15:37.607Z,99023.47
2019-05-09T00:18:11.071Z,99028.19
2019-05-09T00:21:03.999Z,99018.22
2019-05-09T00:23:37.345Z,99016.91
2019-05-09T00:26:10.665Z,99013.92
2019-05-09T00:28:46.157Z,99011.30
2019-05-09T00:31:30.926Z,99005.72
2019-05-09T00:34:09.410Z,99009.78
2019-05-09T00:36:43.875Z,98998.95
2019-05-09T00:39:18.031Z,99001.58
2019-05-09T00:41:53.867Z,98995.48
2019-05-09T00:44:29.561Z,98999.36
2019-05-09T00:47:23.846Z,98992.41
2019-05-09T00:49:57.740Z,98992.41
2019-05-09T00:52:33.776Z,98993.32
2019-05-09T00:55:07.193Z,98985.09
2019-05-09T00:57:41.305Z,98987.72
2019-05-09T01:00:17.155Z,98985.45
2019-05-09T01:02:51.429Z,98990.23
2019-05-09T01:05:25.305Z,98981.91
2019-05-09T01:07:59.311Z,98984.54
2019-05-09T01:10:34.254Z,98969.59
2019-05-09T01:13:07.990Z,98979.17
2019-05-09T01:15:41.179Z,98965.66
2019-05-09T01:18:15.157Z,98964.81
2019-05-09T01:20:48.493Z,98965.27
2019-05-09T01:23:23.416Z,98956.55
2019-05-09T01:25:57.631Z,98954.44
2019-05-09T01:28:33.968Z,98952.67
2019-05-09T01:31:07.559Z,98937.89
2019-05-09T01:33:53.294Z,98951.52
2019-05-09T01:36:28.121Z,98939.33
2019-05-09T01:39:03.262Z,98938.94
2019-05-09T01:41:37.644Z,98936.31
2019-05-09T01:44:13.393Z,98931.98
2019-05-09T01:46:47.722Z,98931.98
2019-05-09T01:49:23.279Z,98922.41
2019-05-09T01:51:57.797Z,98917.17
2019-05-09T01:54:33.232Z,98910.28
2019-05-09T01:57:07.323Z,98910.35
2019-05-09T01:59:40.438Z,98909.43
2019-05-09T02:02:14.525Z,98902.94
2019-05-09T02:04:48.629Z,98896.87
2019-05-09T02:07:23.742Z,98898.09
2019-05-09T02:09:57.817Z,98904.25
2019-05-09T02:12:31.021Z,98900.72
2019-05-09T02:15:20.063Z,98892.78
2019-05-09T02:18:04.777Z,98884.07
2019-05-09T02:20:37.189Z,98875.68
2019-05-09T02:23:11.464Z,98873.52
2019-05-09T02:25:45.709Z,98872.20
2019-05-09T02:28:19.665Z,98873.52
2019-05-09T02:30:55.028Z,98865.65
2019-05-09T02:33:28.550Z,98870.89
2019-05-09T02:36:02.374Z,98859.78
2019-05-09T02:38:39.174Z,98858.86
2019-05-09T02:41:12.446Z,98851.92
2019-05-09T02:43:49.265Z,98846.67
2019-05-09T02:46:39.261Z,98842.74
2019-05-09T02:49:13.163Z,98840.52
2019-05-09T02:51:48.769Z,98841.44
2019-05-09T02:54:22.911Z,98828.06
2019-05-09T02:56:58.099Z,98841.10
2019-05-09T02:59:33.175Z,98826.88
2019-05-09T03:02:11.364Z,98826.88
2019-05-09T03:04:45.531Z,98832.06
2019-05-09T03:07:20.367Z,98842.48
2019-05-09T03:09:54.675Z,98826.75
2019-05-09T03:12:34.637Z,98819.41
2019-05-09T03:15:05.573Z,98825.84
2019-05-09T03:17:39.583Z,98819.67
2019-05-09T03:20:30.211Z,98822.16
2019-05-09T03:23:04.255Z,98825.47
2019-05-09T03:25:40.534Z,98823.17
2019-05-09T03:28:14.510Z,98816.95
2019-05-09T03:30:59.183Z,98819.41
2019-05-09T03:33:35.468Z,98820.13
2019-05-09T03:36:08.097Z,98818.16
2019-05-09T03:38:41.206Z,98813.59
2019-05-09T03:41:17.579Z,98811.16
2019-05-09T03:43:50.991Z,98817.02
2019-05-09T03:46:34.979Z,98812.02
2019-05-09T03:49:13.644Z,98818.20
2019-05-09T03:51:48.213Z,98817.47
2019-05-09T03:54:22.447Z,98809.67
2019-05-09T03:56:57.343Z,98811.06
2019-05-09T03:59:31.308Z,98806.31
2019-05-09T04:02:04.738Z,98804.61
2019-05-09T04:04:38.668Z,98801.59
2019-05-09T04:07:12.706Z,98796.59
2019-05-09T04:09:47.850Z,98799.67
2019-05-09T04:12:20.737Z,98807.93
2019-05-09T04:14:54.681Z,98803.23
2019-05-09T04:17:29.766Z,98795.95
2019-05-09T04:20:04.117Z,98799.06
2019-05-09T04:22:38.623Z,98794.01
2019-05-09T04:25:18.108Z,98791.47
2019-05-09T04:27:53.071Z,98785.34
2019-05-09T04:30:27.512Z,98788.16
2019-05-09T04:33:01.431Z,98776.11
2019-05-09T04:35:35.605Z,98776.34
2019-05-09T04:38:09.612Z,98771.01
2019-05-09T04:40:44.741Z,98774.77
2019-05-09T04:43:26.903Z,98770.82
2019-05-09T04:45:57.951Z,98769.92
2019-05-09T04:48:37.595Z,98775.03
2019-05-09T04:51:11.843Z,98766.21
2019-05-09T04:53:45.124Z,98763.97
2019-05-09T04:56:20.777Z,98770.35
2019-05-09T04:58:54.905Z,98766.80
2019-05-09T05:01:38.772Z,98761.92
2019-05-09T05:04:11.752Z,98768.34
2019-05-09T05:06:47.781Z,98764.01
2019-05-09T05:09:21.780Z,98768.56
2019-05-09T05:11:57.986Z,98766.52
2019-05-09T05:14:31.421Z,98760.63
2019-05-09T05:17:10.190Z,98753.44
2019-05-09T05:19:41.177Z,98757.88
2019-05-09T05:22:18.120Z,98759.30
2019-05-09T05:24:55.704Z,98768.81
2019-05-09T05:27:29.089Z,98759.37
2019-05-09T05:30:02.416Z,98753.36
2019-05-09T05:32:38.605Z,98759.06
2019-05-09T05:35:20.499Z,98760.95
2019-05-09T05:37:54.486Z,98757.61
2019-05-09T05:40:32.967Z,98750.67
2019-05-09T05:43:04.669Z,98752.11
2019-05-09T05:45:40.260Z,98756.72
2019-05-09T05:48:17.537Z,98750.65
2019-05-09T05:50:51.590Z,98745.02
2019-05-09T05:53:27.617Z,98748.04
2019-05-09T05:56:01.485Z,98741.03
2019-05-09T05:58:35.742Z,98743.50
2019-05-09T06:01:09.863Z,98741.55
2019-05-09T06:03:43.266Z,98741.37
2019-05-09T06:06:17.595Z,98735.07
2019-05-09T06:08:51.925Z,98748.06
2019-05-09T06:11:28.153Z,98743.08
2019-05-09T06:14:08.704Z,98747.43
2019-05-09T06:16:37.838Z,98743.78
2019-05-09T06:19:11.966Z,98746.03
2019-05-09T06:21:45.271Z,98761.48
2019-05-09T06:24:19.421Z,98746.02
2019-05-09T06:26:53.517Z,98748.47
2019-05-09T06:29:28.565Z,98743.67
2019-05-09T06:32:02.398Z,98746.58
2019-05-09T06:34:39.637Z,98742.22
2019-05-09T06:37:11.757Z,98739.20
2019-05-09T06:39:45.022Z,98744.27
2019-05-09T06:42:19.209Z,98743.70
2019-05-09T06:45:03.319Z,98741.25
2019-05-09T06:47:38.984Z,98738.42
2019-05-09T06:50:18.458Z,98731.80
2019-05-09T06:52:52.524Z,98730.81
2019-05-09T06:55:27.637Z,98731.75
2019-05-09T06:58:04.018Z,98733.98
2019-05-09T07:00:39.743Z,98729.97
2019-05-09T07:03:18.555Z,98735.06
2019-05-09T07:05:54.470Z,98729.69
2019-05-09T07:08:39.449Z,98732.04
2019-05-09T07:11:13.658Z,98725.39
2019-05-09T07:13:47.795Z,98726.52
2019-05-09T07:16:20.984Z,98733.64
2019-05-09T07:18:54.981Z,98735.66
2019-05-09T07:21:48.502Z,98724.89
2019-05-09T07:24:22.665Z,98741.06
2019-05-09T07:26:55.816Z,98735.91
2019-05-09T07:29:31.455Z,98735.34
2019-05-09T07:32:07.667Z,98731.51
2019-05-09T07:34:47.411Z,98724.97
2019-05-09T07:37:21.901Z,98731.99
2019-05-09T07:39:57.730Z,98726.27
2019-05-09T07:42:31.810Z,98735.86
2019-05-09T07:45:09.114Z,98724.73
2019-05-09T07:47:43.276Z,98729.54
2019-05-09T07:50:18.984Z,98714.59
2019-05-09T07:52:52.648Z,98719.80
2019-05-09T07:55:27.552Z,98715.25
2019-05-09T07:58:01.668Z,98712.31
2019-05-09T08:00:35.241Z,98719.63
2019-05-09T08:03:13.032Z,98729.16
2019-05-09T08:05:45.093Z,98709.05
2019-05-09T08:08:18.753Z,98713.28
2019-05-09T08:10:52.822Z,98713.77
2019-05-09T08:13:28.783Z,98710.97
2019-05-09T08:16:00.947Z,98713.56
2019-05-09T08:18:37.444Z,98710.15
2019-05-09T08:21:10.751Z,98704.27
2019-05-09T08:23:44.797Z,98702.39
2019-05-09T08:26:19.131Z,98704.95
2019-05-09T08:28:53.217Z,98700.50
2019-05-09T08:31:28.062Z,98692.56
2019-05-09T08:34:02.289Z,98698.86
2019-05-09T08:36:38.329Z,98695.85
2019-05-09T08:39:12.202Z,98699.47
2019-05-09T08:41:48.523Z,98703.96
2019-05-09T08:44:21.879Z,98695.62
2019-05-09T08:46:57.405Z,98695.47
2019-05-09T08:49:39.159Z,98694.39
2019-05-09T08:52:16.342Z,98692.45
2019-05-09T08:54:51.960Z,98682.92
2019-05-09T08:57:28.641Z,98685.91
2019-05-09T09:00:01.806Z,98676.94
2019-05-09T09:02:34.996Z,98679.75
2019-05-09T09:05:09.150Z,98684.00
2019-05-09T09:07:42.280Z,98687.94
2019-05-09T09:10:18.710Z,98671.70
2019-05-09T09:12:52.239Z,98667.70
2019-05-09T09:15:50.088Z,98671.50
2019-05-09T09:18:01.897Z,98677.28
2019-05-09T09:20:37.986Z,98667.84
2019-05-09T09:23:11.746Z,98675.23
2019-05-09T09:25:45.688Z,98663.32
2019-05-09T09:28:20.092Z,98672.69
2019-05-09T09:30:54.119Z,98667.89
2019-05-09T09:33:28.104Z,98659.39
2019-05-09T09:36:02.275Z,98665.06
2019-05-09T09:38:37.571Z,98667.02
2019-05-09T09:41:11.486Z,98668.44
2019-05-09T09:43:47.650Z,98666.74
2019-05-09T09:46:21.347Z,98673.31
2019-05-09T09:48:55.251Z,98676.04
2019-05-09T09:51:29.383Z,98661.86
2019-05-09T09:54:02.710Z,98658.38
2019-05-09T09:56:38.622Z,98661.66
2019-05-09T09:59:14.117Z,98667.18
2019-05-09T10:02:01.236Z,98660.14
2019-05-09T10:04:37.540Z,98667.27
2019-05-09T10:07:11.157Z,98658.20
2019-05-09T10:09:44.592Z,98662.88
2019-05-09T10:12:19.060Z,98650.88
2019-05-09T10:14:57.854Z,98649.68
2019-05-09T10:17:47.688Z,98651.37
2019-05-09T10:20:29.109Z,98648.62
2019-05-09T10:23:11.136Z,98645.55
2019-05-09T10:25:38.363Z,98648.25
2019-05-09T10:28:12.350Z,98635.28
2019-05-09T10:30:48.491Z,98637.19
2019-05-09T10:33:22.914Z,98644.22
2019-05-09T10:36:03.687Z,98644.89
2019-05-09T10:38:33.097Z,98648.27
2019-05-09T10:41:10.997Z,98654.52
2019-05-09T10:43:50.332Z,98640.89
2019-05-09T10:46:51.360Z,98642.66
2019-05-09T10:49:13.834Z,98640.00
2019-05-09T10:51:48.524Z,98637.52
2019-05-09T10:54:22.716Z,98633.72
2019-05-09T10:56:57.994Z,98630.22
2019-05-09T10:59:31.034Z,98637.16
2019-05-09T11:02:05.006Z,98631.98
2019-05-09T11:04:42.928Z,98631.63
2019-05-09T11:07:14.830Z,98640.75
2019-05-09T11:09:48.923Z,98637.11
2019-05-09T11:12:22.292Z,98645.22
2019-05-09T11:14:59.120Z,98634.30
2019-05-09T11:17:31.859Z,98641.29
2019-05-09T11:20:09.101Z,98638.57
2019-05-09T11:22:43.051Z,98635.04
2019-05-09T11:25:17.245Z,98632.31
2019-05-09T11:28:06.937Z,98635.14
2019-05-09T11:30:28.159Z,98632.48
2019-05-09T11:33:02.283Z,98637.28
2019-05-09T11:35:37.974Z,98634.63
2019-05-09T11:38:12.518Z,98625.92
2019-05-09T11:40:48.335Z,98644.45
2019-05-09T11:43:22.638Z,98631.39
2019-05-09T11:45:58.626Z,98625.33
2019-05-09T11:48:32.488Z,98623.70
2019-05-09T11:51:08.830Z,98620.41
2019-05-09T11:53:42.489Z,98623.92
2019-05-09T11:56:17.704Z,98623.61
2019-05-09T11:58:51.508Z,98626.27
2019-05-09T12:01:25.575Z,98625.52
2019-05-09T12:03:58.739Z,98620.77
2019-05-09T12:06:32.959Z,98626.23
2019-05-09T12:09:09.058Z,98626.14
2019-05-09T12:11:44.649Z,98629.64
2019-05-09T12:14:18.747Z,98623.79
2019-05-09T12:16:51.880Z,98623.79
2019-05-09T12:19:29.317Z,98630.92
2019-05-09T12:22:02.118Z,98615.41
2019-05-09T12:24:38.430Z,98617.56
2019-05-09T12:27:11.929Z,98627.30
2019-05-09T12:29:48.331Z,98627.66
2019-05-09T12:32:21.883Z,98619.80
2019-05-09T12:34:57.585Z,98616.48
2019-05-09T12:37:31.035Z,98623.02
2019-05-09T12:40:07.688Z,98620.94
2019-05-09T12:42:42.118Z,98617.94
2019-05-09T12:45:18.033Z,98624.39
2019-05-09T12:48:06.048Z,98618.80
2019-05-09T12:50:29.401Z,98618.80
2019-05-09T12:53:03.693Z,98616.70
2019-05-09T12:55:38.519Z,98613.94
2019-05-09T12:58:27.969Z,98628.74
2019-05-09T13:01:03.381Z,98621.05
2019-05-09T13:03:38.256Z,98606.19
2019-05-09T13:06:12.398Z,98618.30
2019-05-09T13:08:47.983Z,98621.67
2019-05-09T13:11:22.253Z,98627.97
2019-05-09T13:13:55.340Z,98633.73
2019-05-09T13:16:50.680Z,98626.10
2019-05-09T13:19:41.057Z,98628.69
2019-05-09T13:22:15.063Z,98603.88
2019-05-09T13:24:48.999Z,98624.85
2019-05-09T13:27:22.997Z,98620.18
2019-05-09T13:29:56.937Z,98620.44
2019-05-09T13:32:30.895Z,98621.78
2019-05-09T13:35:05.872Z,98625.64
2019-05-09T13:37:40.191Z,98622.84
2019-05-09T13:40:18.825Z,98630.72
2019-05-09T13:42:52.064Z,98619.36
2019-05-09T13:45:25.240Z,98621.28
2019-05-09T13:47:59.375Z,98622.97
2019-05-09T13:50:33.527Z,98626.11
2019-05-09T13:53:07.733Z,98625.75
2019-05-09T13:55:41.761Z,98630.25
2019-05-09T13:58:15.662Z,98625.64
2019-05-09T14:00:59.290Z,98626.00
2019-05-09T14:03:28.114Z,98626.00
2019-05-09T14:06:01.809Z,98628.09
2019-05-09T14:08:38.790Z,98636.02
2019-05-09T14:11:11.538Z,98626.11
2019-05-09T14:13:45.418Z,98629.66
2019-05-09T14:16:22.364Z,98630.89
2019-05-09T14:18:55.868Z,98628.48
2019-05-09T14:21:30.715Z,98631.41
2019-05-09T14:24:14.210Z,98620.06
2019-05-09T14:26:39.242Z,98617.77
2019-05-09T14:29:13.547Z,98622.95
2019-05-09T14:31:47.652Z,98618.88
2019-05-09T14:34:21.749Z,98624.23
2019-05-09T14:36:58.458Z,98625.73
2019-05-09T14:39:31.613Z,98632.81
2019-05-09T14:42:09.072Z,98631.28
2019-05-09T14:44:41.983Z,98638.16
2019-05-09T14:47:17.716Z,98620.78
2019-05-09T14:49:51.966Z,98614.78
2019-05-09T14:52:28.312Z,98627.94
2019-05-09T14:55:01.934Z,98632.66
2019-05-09T14:57:38.380Z,98633.71
2019-05-09T15:00:13.051Z,98642.66
2019-05-09T15:02:48.849Z,98644.61
2019-05-09T15:05:23.147Z,98640.52
2019-05-09T15:08:00.559Z,98647.38
2019-05-09T15:10:35.295Z,98643.39
2019-05-09T15:13:09.638Z,98648.70
2019-05-09T15:15:43.789Z,98643.39
2019-05-09T15:18:17.653Z,98650.73
2019-05-09T15:20:53.485Z,98644.42
2019-05-09T15:23:29.241Z,98644.42
2019-05-09T15:26:03.104Z,98652.84
2019-05-09T15:28:38.609Z,98656.34
2019-05-09T15:31:12.701Z,98651.52
2019-05-09T15:33:48.632Z,98653.80
2019-05-09T15:36:22.381Z,98653.58
2019-05-09T15:38:55.530Z,98650.08
2019-05-09T15:41:29.662Z,98651.19
2019-05-09T15:44:03.242Z,98651.41
2019-05-09T15:46:42.025Z,98647.77
2019-05-09T15:49:18.357Z,98656.05
2019-05-09T15:51:51.803Z,98644.35
2019-05-09T15:54:25.865Z,98638.32
2019-05-09T15:57:01.983Z,98641.89
2019-05-09T15:59:38.960Z,98644.66
2019-05-09T16:02:13.588Z,98647.52
2019-05-09T16:04:47.711Z,98651.74
2019-05-09T16:07:21.095Z,98648.36
2019-05-09T16:09:55.104Z,98652.81
2019-05-09T16:12:29.561Z,98656.09
2019-05-09T16:15:07.780Z,98654.14
2019-05-09T16:17:43.635Z,98655.47
2019-05-09T16:20:36.042Z,98649.31
2019-05-09T16:22:57.129Z,98652.29
2019-05-09T16:25:30.564Z,98651.28
2019-05-09T16:28:08.009Z,98651.49
2019-05-09T16:30:44.625Z,98652.08
2019-05-09T16:33:21.959Z,98655.30
2019-05-09T16:35:59.632Z,98648.30
2019-05-09T16:38:42.977Z,98649.25
2019-05-09T16:41:10.474Z,98645.98
2019-05-09T16:43:44.770Z,98642.16
2019-05-09T16:46:19.256Z,98655.86
2019-05-09T16:48:55.217Z,98647.77
2019-05-09T16:51:31.090Z,98650.41
2019-05-09T16:54:07.499Z,98653.15
2019-05-09T16:56:41.845Z,98656.97
2019-05-09T16:59:18.197Z,98639.18
2019-05-09T17:01:53.644Z,98641.09
2019-05-09T17:04:29.523Z,98649.82
2019-05-09T17:07:08.418Z,98656.20
2019-05-09T17:09:45.231Z,98656.67
2019-05-09T17:12:22.547Z,98654.03
2019-05-09T17:14:59.735Z,98660.27
2019-05-09T17:17:42.429Z,98665.98
2019-05-09T17:20:19.888Z,98663.81
2019-05-09T17:23:14.780Z,98649.03
2019-05-09T17:25:49.932Z,98653.21
2019-05-09T17:28:28.284Z,98654.74
2019-05-09T17:31:02.138Z,98646.68
2019-05-09T17:33:37.986Z,98648.00
2019-05-09T17:36:13.529Z,98649.73
2019-05-09T17:38:49.070Z,98656.19
2019-05-09T17:41:23.793Z,98652.83
2019-05-09T17:43:58.368Z,98657.48
2019-05-09T17:46:39.921Z,98656.94
2019-05-09T17:49:17.345Z,98653.32
2019-05-09T17:51:52.363Z,98657.39
2019-05-09T17:57:20.214Z,98660.70
2019-05-09T17:59:59.423Z,98654.27
2019-05-09T18:02:33.954Z,98653.32
2019-05-09T18:05:09.483Z,98648.10
2019-05-09T18:07:43.582Z,98652.07
2019-05-09T18:10:18.324Z,98655.77
2019-05-09T18:12:52.092Z,98656.10
2019-05-09T18:15:28.229Z,98660.27
2019-05-09T18:18:03.409Z,98659.63
2019-05-09T18:20:38.534Z,98663.17
2019-05-09T18:23:12.656Z,98661.68
2019-05-09T18:25:49.456Z,98653.04
2019-05-09T18:28:23.770Z,98650.39
2019-05-09T18:31:00.492Z,98653.61
2019-05-09T18:33:53.978Z,98647.41
2019-05-09T18:36:30.501Z,98645.34
2019-05-09T18:39:07.575Z,98648.59
2019-05-09T18:41:41.381Z,98652.47
2019-05-09T18:44:15.424Z,98659.61
2019-05-09T18:46:48.968Z,98653.20
2019-05-09T18:49:23.491Z,98660.37
2019-05-09T18:52:03.712Z,98657.11
2019-05-09T18:54:34.522Z,98656.27
2019-05-09T18:57:09.085Z,98658.91
2019-05-09T18:59:43.978Z,98655.31
2019-05-09T19:02:18.375Z,98660.59
2019-05-09T19:04:53.190Z,98660.80
2019-05-09T19:07:28.258Z,98658.55
2019-05-09T19:10:03.460Z,98661.41
2019-05-09T19:12:38.114Z,98657.83
2019-05-09T19:15:24.414Z,98657.45
2019-05-09T19:18:00.935Z,98656.23
2019-05-09T19:20:37.429Z,98663.49
2019-05-09T19:23:12.210Z,98657.31
2019-05-09T19:25:47.047Z,98653.74
2019-05-09T19:28:24.053Z,98659.49
2019-05-09T19:30:57.367Z,98654.91
2019-05-09T19:33:31.723Z,98652.66
2019-05-09T19:36:06.226Z,98652.70
2019-05-09T19:38:40.822Z,98649.87
2019-05-09T19:41:15.020Z,98648.17
2019-05-09T19:43:49.147Z,98644.91
2019-05-09T19:46:23.369Z,98648.02
2019-05-09T19:48:57.608Z,98644.63
2019-05-09T19:51:31.906Z,98653.48
2019-05-09T19:54:06.485Z,98649.63
2019-05-09T19:56:40.971Z,98651.88
2019-05-09T19:59:15.805Z,98653.67
2019-05-09T20:01:50.700Z,98653.30
2019-05-09T20:04:25.146Z,98648.77
2019-05-09T20:06:59.534Z,98650.19
2019-05-09T20:09:35.882Z,98657.25
2019-05-09T20:12:14.732Z,98653.30
2019-05-09T20:14:50.596Z,98654.92
2019-05-09T20:17:25.016Z,98661.15
2019-05-09T20:19:59.527Z,98648.05
2019-05-09T20:22:33.900Z,98654.73
2019-05-09T20:25:08.620Z,98659.17
2019-05-09T20:27:43.396Z,98662.94
2019-05-09T20:30:18.143Z,98662.12
2019-05-09T20:32:52.268Z,98664.84
2019-05-09T20:35:25.601Z,98665.79
2019-05-09T20:37:59.999Z,98662.95
2019-05-09T20:40:34.545Z,98663.91
2019-05-09T20:43:09.485Z,98661.83
2019-05-09T20:45:44.185Z,98658.34
2019-05-09T20:48:19.193Z,98657.15
2019-05-09T20:50:53.781Z,98656.86
2019-05-09T20:53:29.027Z,98659.03
2019-05-09T20:56:03.819Z,98651.69
2019-05-09T20:58:38.847Z,98653.47
2019-05-09T21:01:13.977Z,98656.02
2019-05-09T21:03:59.767Z,98657.70
2019-05-09T21:06:25.059Z,98656.77
2019-05-09T21:08:59.349Z,98650.90
2019-05-09T21:11:33.937Z,98646.00
2019-05-09T21:14:08.257Z,98639.70
2019-05-09T21:16:42.707Z,98635.46
2019-05-09T21:19:17.660Z,98638.47
2019-05-09T21:21:52.444Z,98632.98
2019-05-09T21:24:26.806Z,98630.91
2019-05-09T21:27:01.196Z,98629.02
2019-05-09T21:29:35.738Z,98623.05
2019-05-09T21:32:10.307Z,98629.77
2019-05-09T21:34:44.721Z,98635.24
2019-05-09T21:37:18.902Z,98631.85
2019-05-09T21:39:52.780Z,98632.23
2019-05-09T21:42:27.008Z,98624.19
2019-05-09T21:45:01.482Z,98624.19
2019-05-09T21:47:35.993Z,98652.13
2019-05-09T21:50:10.660Z,98660.72
2019-05-09T21:52:45.072Z,98666.74
2019-05-09T21:55:19.575Z,98658.98
2019-05-09T21:57:54.096Z,98663.62
2019-05-09T22:00:32.529Z,98674.27
2019-05-09T22:03:07.175Z,98667.67
2019-05-09T22:05:41.323Z,98667.67
2019-05-09T22:08:15.727Z,98666.45
2019-05-09T22:10:49.736Z,98669.93
2019-05-09T22:13:23.840Z,98668.23
2019-05-09T22:15:57.763Z,98673.59
2019-05-09T22:18:31.858Z,98667.09
2019-05-09T22:21:05.256Z,98669.17
2019-05-09T22:23:39.443Z,98668.80
2019-05-09T22:26:13.452Z,98669.36
2019-05-09T22:28:47.694Z,98671.05
2019-05-09T22:31:21.106Z,98667.56
2019-05-09T22:33:55.235Z,98667.00
2019-05-09T22:36:28.820Z,98666.54
2019-05-09T22:39:02.870Z,98670.02
2019-05-09T22:41:36.118Z,98669.27
2019-05-09T22:44:10.215Z,98670.49
2019-05-09T22:46:43.565Z,98660.51
2019-05-09T22:49:17.593Z,98662.89
2019-05-09T22:51:51.906Z,98662.13
2019-05-09T22:54:26.028Z,98661.19
2019-05-09T22:57:00.263Z,98664.30
2019-05-09T22:59:34.263Z,98666.72
2019-05-09T23:02:08.256Z,98662.30
2019-05-09T23:04:41.413Z,98661.66
2019-05-09T23:07:15.565Z,98668.81
2019-05-09T23:09:49.871Z,98664.75
2019-05-09T23:12:23.823Z,98670.49
2019-05-09T23:14:58.004Z,98673.13
2019-05-09T23:17:32.163Z,98665.52
2019-05-09T23:20:09.472Z,98661.65
2019-05-09T23:22:43.509Z,98662.50
2019-05-09T23:25:16.691Z,98666.54
2019-05-09T23:27:50.691Z,98665.22
2019-05-09T23:30:24.917Z,98677.08
2019-05-09T23:32:58.745Z,98666.07
2019-05-09T23:35:32.712Z,98667.48
2019-05-09T23:38:06.761Z,98659.95
2019-05-09T23:40:39.891Z,98659.86
2019-05-09T23:43:13.677Z,98667.97
2019-05-09T23:45:47.735Z,98663.92
2019-05-09T23:48:21.056Z,98658.09
2019-05-09T23:50:55.174Z,98662.04
2019-05-09T23:53:32.723Z,98661.28
2019-05-09T23:56:24.685Z,98652.15
2019-05-09T23:59:16.993Z,98657.52
